Time;durP1;ratioP1;P1;durP2;ratioP2;P2;SDS_P1;SDS_P2;PMS_P1;PMS_P2;Temp;Humidity;BMP_temperature;BMP_pressure;BME280_temperature;BME280_humidity;BME280_pressure;Samples;Min_cycle;Max_cycle;Signal;HPM_P1;HPM_P2
2021/11/10 00:00:19;;;;;;;24.25;10.55;;;7.50;99.90;;;;;;5013219;28;20246;-77
2021/11/10 00:02:45;;;;;;;31.38;10.18;;;7.50;99.90;;;;;;5014090;28;20211;-77
2021/11/10 00:05:11;;;;;;;29.58;10.52;;;7.50;99.90;;;;;;5013234;28;20168;-76
2021/11/10 00:07:37;;;;;;;22.88;11.65;;;7.60;99.90;;;;;;5013865;28;20156;-77
2021/11/10 00:10:04;;;;;;;24.23;9.60;;;7.50;99.90;;;;;;5012479;28;20554;-77
2021/11/10 00:12:31;;;;;;;24.25;10.70;;;7.40;99.90;;;;;;5013299;28;20540;-78
2021/11/10 00:14:57;;;;;;;20.48;10.02;;;7.40;99.90;;;;;;5029503;28;20238;-91
2021/11/10 00:17:23;;;;;;;27.08;9.68;;;7.60;99.90;;;;;;5014085;28;20204;-80
2021/11/10 00:19:48;;;;;;;33.92;11.50;;;7.60;99.90;;;;;;5013349;28;20192;-77
2021/11/10 00:22:14;;;;;;;20.45;9.40;;;7.40;99.90;;;;;;5013100;28;20519;-76
2021/11/10 00:24:40;;;;;;;24.58;9.85;;;7.20;99.90;;;;;;5013208;28;20176;-77
2021/11/10 00:27:06;;;;;;;20.50;9.93;;;7.10;99.90;;;;;;5012119;28;20169;-77
2021/11/10 00:29:31;;;;;;;27.15;10.07;;;7.10;99.90;;;;;;5013208;28;20172;-77
2021/11/10 00:31:57;;;;;;;26.30;9.63;;;7.30;99.90;;;;;;5012948;28;20219;-77
2021/11/10 00:34:22;;;;;;;21.48;11.07;;;7.50;99.90;;;;;;5013181;28;20279;-77
2021/11/10 00:36:49;;;;;;;31.83;13.02;;;7.60;99.90;;;;;;5013095;28;20172;-76
2021/11/10 00:39:15;;;;;;;21.27;10.52;;;7.70;99.90;;;;;;5012933;28;20168;-76
2021/11/10 00:41:40;;;;;;;27.10;10.07;;;7.60;99.90;;;;;;5011803;28;20187;-77
2021/11/10 00:44:06;;;;;;;28.15;10.95;;;7.70;99.90;;;;;;5012923;28;20188;-76
2021/11/10 00:46:32;;;;;;;20.50;9.65;;;7.60;99.90;;;;;;5012928;28;20168;-77
2021/11/10 00:48:59;;;;;;;30.40;9.55;;;7.60;99.90;;;;;;5012832;28;20165;-77
2021/11/10 00:51:25;;;;;;;36.35;9.30;;;7.40;99.90;;;;;;5012897;28;20195;-76
2021/11/10 00:53:51;;;;;;;22.08;9.15;;;7.20;99.90;;;;;;5012972;28;20175;-76
2021/11/10 00:56:17;;;;;;;24.83;9.80;;;7.00;99.90;;;;;;5012498;28;20669;-76
2021/11/10 00:58:43;;;;;;;20.23;8.82;;;7.00;99.90;;;;;;5012838;28;20176;-77
2021/11/10 01:01:09;;;;;;;30.45;8.48;;;7.20;99.90;;;;;;5011111;28;20216;-76
2021/11/10 01:03:35;;;;;;;16.60;7.90;;;7.20;99.90;;;;;;5012889;28;20316;-76
2021/11/10 01:06:01;;;;;;;15.32;8.05;;;6.90;99.90;;;;;;5012535;28;20251;-76
2021/11/10 01:08:27;;;;;;;16.00;8.90;;;6.70;99.90;;;;;;5012717;28;20180;-76
2021/11/10 01:10:53;;;;;;;18.67;9.55;;;6.90;99.90;;;;;;5012631;28;20215;-76
2021/11/10 01:13:20;;;;;;;20.70;9.52;;;6.70;99.90;;;;;;5012888;28;20506;-77
2021/11/10 01:15:46;;;;;;;16.30;8.40;;;6.80;99.90;;;;;;5012274;28;20219;-76
2021/11/10 01:18:12;;;;;;;18.13;8.15;;;6.90;99.90;;;;;;5011290;28;20172;-76
2021/11/10 01:20:39;;;;;;;26.10;9.38;;;6.70;99.90;;;;;;5012507;28;20275;-77
2021/11/10 01:23:05;;;;;;;21.80;9.57;;;6.80;99.90;;;;;;5012621;28;20169;-76
2021/11/10 01:25:31;;;;;;;18.73;8.15;;;6.90;99.90;;;;;;5011334;28;20172;-77
2021/11/10 01:27:57;;;;;;;24.67;8.93;;;6.90;99.90;;;;;;5012730;28;20187;-76
2021/11/10 01:30:23;;;;;;;21.27;9.57;;;7.00;99.90;;;;;;5012387;28;20708;-76
2021/11/10 01:32:49;;;;;;;23.48;9.43;;;7.00;99.90;;;;;;5011998;28;20247;-77
2021/11/10 01:35:15;;;;;;;15.45;8.48;;;6.90;99.90;;;;;;5011733;28;20196;-77
2021/11/10 01:37:41;;;;;;;20.50;8.95;;;6.80;99.90;;;;;;5012061;28;20183;-76
2021/11/10 01:40:08;;;;;;;22.23;9.63;;;6.80;99.90;;;;;;5011794;28;20204;-77
2021/11/10 01:42:41;;;;;;;13.93;9.35;;;7.00;99.90;;;;;;5012257;28;20637;-76
2021/11/10 01:45:09;;;;;;;17.85;8.32;;;6.80;99.90;;;;;;5012072;28;20172;-77
2021/11/10 01:47:35;;;;;;;16.42;9.10;;;6.60;99.90;;;;;;5012514;28;20244;-77
2021/11/10 01:50:01;;;;;;;20.55;9.00;;;6.70;99.90;;;;;;5012518;28;20744;-76
2021/11/10 01:52:26;;;;;;;18.38;8.98;;;6.60;99.90;;;;;;5015859;28;20200;-76
2021/11/10 01:54:52;;;;;;;13.57;8.07;;;6.60;99.90;;;;;;5015776;28;20235;-76
2021/11/10 01:57:18;;;;;;;27.60;10.02;;;6.70;99.90;;;;;;5015812;28;20252;-76
2021/11/10 01:59:46;;;;;;;36.47;11.15;;;6.60;99.90;;;;;;5015723;28;20284;-76
2021/11/10 02:02:29;;;;;;;38.67;11.60;;;6.90;99.90;;;;;;5015870;28;20165;-76
2021/11/10 02:04:55;;;;;;;29.08;11.57;;;6.50;99.90;;;;;;5015446;28;20172;-76
2021/11/10 02:07:21;;;;;;;49.03;12.13;;;6.40;99.90;;;;;;5015905;28;20161;-76
2021/11/10 02:09:49;;;;;;;23.40;10.18;;;6.40;99.90;;;;;;5014520;28;20210;-77
2021/11/10 02:12:16;;;;;;;26.45;12.65;;;6.40;99.90;;;;;;5016010;28;20169;-76
2021/11/10 02:14:42;;;;;;;26.77;9.80;;;6.40;99.90;;;;;;5015794;28;20295;-76
2021/11/10 02:17:13;;;;;;;19.92;8.73;;;6.40;99.90;;;;;;5015458;28;20251;-76
2021/11/10 02:19:39;;;;;;;30.98;10.45;;;6.40;99.90;;;;;;5015816;28;20196;-76
2021/11/10 02:22:05;;;;;;;19.50;9.43;;;6.50;99.90;;;;;;5015546;28;20195;-76
2021/11/10 02:24:36;;;;;;;27.58;9.48;;;6.50;99.90;;;;;;5013961;28;20168;-77
2021/11/10 02:27:03;;;;;;;23.17;9.32;;;6.40;99.90;;;;;;5015376;28;20168;-76
2021/11/10 02:29:30;;;;;;;18.45;9.00;;;6.60;99.90;;;;;;5015557;28;20176;-76
2021/11/10 02:31:57;;;;;;;22.38;10.20;;;6.60;99.90;;;;;;5015370;28;20176;-76
2021/11/10 02:34:23;;;;;;;25.85;10.50;;;6.40;99.90;;;;;;5015017;28;20260;-76
2021/11/10 02:36:49;;;;;;;28.90;10.55;;;6.30;99.90;;;;;;5015417;28;20180;-76
2021/11/10 02:39:18;;;;;;;30.23;10.05;;;6.40;99.90;;;;;;5013935;28;20183;-77
2021/11/10 02:41:46;;;;;;;19.23;7.80;;;6.40;99.90;;;;;;5015153;28;20219;-77
2021/11/10 02:44:18;;;;;;;16.50;8.80;;;6.70;99.90;;;;;;5014614;28;20173;-76
2021/11/10 02:46:46;;;;;;;23.23;8.98;;;6.40;99.90;;;;;;5015007;28;20608;-77
2021/11/10 02:49:12;;;;;;;17.98;9.25;;;6.40;99.90;;;;;;5015070;28;20179;-76
2021/11/10 02:51:59;;;;;;;14.90;8.02;;;6.30;99.90;;;;;;5013228;28;20236;-76
2021/11/10 02:54:26;;;;;;;17.58;8.00;;;6.10;99.90;;;;;;5014588;28;20168;-76
2021/11/10 02:56:57;;;;;;;20.13;8.27;;;6.10;99.90;;;;;;5013586;28;20266;-90
2021/11/10 02:59:23;;;;;;;20.92;9.25;;;6.10;99.90;;;;;;5014831;28;20530;-77
2021/11/10 03:01:50;;;;;;;17.88;8.93;;;6.20;99.90;;;;;;5014454;28;20251;-76
2021/11/10 03:04:46;;;;;;;17.40;9.00;;;6.30;99.90;;;;;;5014357;28;20222;-76
2021/11/10 03:07:13;;;;;;;15.95;8.98;;;6.40;99.90;;;;;;5000883;28;20537;-76
2021/11/10 03:09:39;;;;;;;11.73;8.23;;;6.30;99.90;;;;;;5013202;28;20279;-76
2021/11/10 03:12:06;;;;;;;17.80;8.68;;;6.50;99.90;;;;;;5014548;28;20661;-76
2021/11/10 03:14:34;;;;;;;27.40;9.57;;;6.40;99.90;;;;;;5014297;28;20195;-76
2021/11/10 03:17:02;;;;;;;16.25;8.38;;;6.20;99.90;;;;;;5014455;28;20219;-77
2021/11/10 03:19:28;;;;;;;12.63;7.82;;;6.10;99.90;;;;;;5014582;28;20199;-77
2021/11/10 03:21:53;;;;;;;15.80;7.50;;;6.00;99.90;;;;;;5014055;28;20169;-76
2021/11/10 03:24:19;;;;;;;16.20;7.80;;;6.00;99.90;;;;;;5014087;28;20160;-76
2021/11/10 03:26:45;;;;;;;17.27;9.02;;;5.90;99.90;;;;;;5014228;28;20177;-76
2021/11/10 03:29:11;;;;;;;16.77;8.55;;;6.00;99.90;;;;;;5014241;28;20169;-76
2021/11/10 03:31:38;;;;;;;22.95;8.80;;;6.10;99.90;;;;;;5014092;28;20207;-76
2021/11/10 03:34:06;;;;;;;14.00;9.48;;;6.00;99.90;;;;;;5014182;28;20209;-76
2021/11/10 03:36:32;;;;;;;12.57;7.53;;;5.90;99.90;;;;;;5013723;28;20212;-76
2021/11/10 03:38:59;;;;;;;14.73;8.23;;;6.10;99.90;;;;;;5013892;28;20191;-76
2021/11/10 03:41:25;;;;;;;22.55;7.57;;;6.30;99.90;;;;;;5013965;28;20192;-76
2021/11/10 03:43:51;;;;;;;12.63;8.32;;;6.10;99.90;;;;;;5013878;28;20251;-76
2021/11/10 03:46:19;;;;;;;10.60;8.63;;;6.00;99.90;;;;;;5013988;28;20168;-76
2021/11/10 03:48:45;;;;;;;13.50;8.00;;;6.00;99.90;;;;;;5012580;28;20625;-76
2021/11/10 03:51:11;;;;;;;14.88;7.53;;;6.00;99.90;;;;;;5013636;28;20568;-76
2021/11/10 03:53:37;;;;;;;9.68;8.13;;;5.90;99.90;;;;;;5013525;28;20176;-78
2021/11/10 03:56:03;;;;;;;16.42;8.98;;;5.80;99.90;;;;;;5013692;28;20568;-76
2021/11/10 03:58:30;;;;;;;13.15;7.65;;;6.00;99.90;;;;;;5014090;28;20164;-76
2021/11/10 04:00:57;;;;;;;13.00;8.50;;;6.10;99.90;;;;;;5012678;28;20199;-76
2021/11/10 04:03:23;;;;;;;12.77;7.90;;;5.90;99.90;;;;;;5013895;28;20168;-77
2021/11/10 04:05:49;;;;;;;21.42;8.93;;;5.80;99.90;;;;;;5013536;28;20189;-77
2021/11/10 04:08:15;;;;;;;19.08;8.40;;;5.90;99.90;;;;;;5013225;28;20163;-76
2021/11/10 04:10:40;;;;;;;17.45;8.18;;;5.90;99.90;;;;;;5013473;28;20620;-77
2021/11/10 04:13:07;;;;;;;13.55;8.63;;;5.70;99.90;;;;;;5013113;28;20178;-77
2021/11/10 04:15:32;;;;;;;10.85;7.50;;;5.70;99.90;;;;;;5013411;28;20236;-76
2021/11/10 04:17:58;;;;;;;17.77;7.50;;;5.60;99.90;;;;;;5013448;28;20164;-77
2021/11/10 04:20:24;;;;;;;16.30;8.60;;;5.60;99.90;;;;;;5013043;28;20195;-77
2021/11/10 04:22:50;;;;;;;20.60;8.50;;;5.70;99.90;;;;;;5013440;28;20168;-77
2021/11/10 04:25:16;;;;;;;16.33;7.45;;;5.90;99.90;;;;;;5013314;28;20191;-78
2021/11/10 04:27:41;;;;;;;13.32;7.85;;;5.80;99.90;;;;;;5013031;28;20629;-77
2021/11/10 04:30:08;;;;;;;25.15;7.30;;;5.80;99.90;;;;;;5013040;28;20215;-76
2021/11/10 04:32:34;;;;;;;13.32;8.02;;;5.90;99.90;;;;;;5011604;28;20164;-77
2021/11/10 04:35:00;;;;;;;14.98;8.40;;;6.00;99.90;;;;;;5012694;28;20324;-76
2021/11/10 04:37:25;;;;;;;21.95;7.72;;;5.70;99.90;;;;;;5012947;28;20504;-77
2021/11/10 04:39:51;;;;;;;22.05;8.80;;;5.80;99.90;;;;;;5012664;28;20189;-77
2021/11/10 04:42:17;;;;;;;12.32;9.30;;;5.90;99.90;;;;;;5012878;28;20757;-76
2021/11/10 04:44:47;;;;;;;15.45;8.23;;;5.70;99.90;;;;;;5012438;28;20165;-76
2021/11/10 04:47:12;;;;;;;18.52;8.52;;;5.80;99.90;;;;;;5012313;28;20690;-76
2021/11/10 04:49:38;;;;;;;15.98;9.43;;;6.00;99.90;;;;;;5012518;28;20197;-76
2021/11/10 04:52:04;;;;;;;22.13;10.27;;;6.00;99.90;;;;;;5012499;28;20524;-76
2021/11/10 04:54:30;;;;;;;25.02;11.75;;;6.00;99.90;;;;;;5013184;28;20173;-76
2021/11/10 04:57:05;;;;;;;17.50;9.00;;;6.00;99.90;;;;;;5011558;28;20179;-76
2021/11/10 04:59:31;;;;;;;30.48;10.50;;;6.30;99.90;;;;;;5012641;28;20172;-76
2021/11/10 05:02:23;;;;;;;25.10;9.57;;;6.30;99.90;;;;;;5012710;28;20181;-77
2021/11/10 05:04:48;;;;;;;15.57;8.40;;;6.30;99.90;;;;;;5012499;28;20539;-76
2021/11/10 05:07:14;;;;;;;18.45;9.55;;;6.10;99.90;;;;;;5012482;28;20175;-77
2021/11/10 05:09:40;;;;;;;17.10;8.85;;;6.00;99.90;;;;;;5012723;28;20231;-77
2021/11/10 05:12:06;;;;;;;18.33;8.35;;;6.00;99.90;;;;;;5012486;28;20196;-76
2021/11/10 05:14:32;;;;;;;16.02;9.35;;;5.90;99.90;;;;;;5012275;28;20580;-76
2021/11/10 05:16:58;;;;;;;16.60;7.95;;;5.90;99.90;;;;;;5012128;28;20180;-76
2021/11/10 05:19:23;;;;;;;19.40;8.95;;;5.90;99.90;;;;;;5012363;28;20318;-76
2021/11/10 05:21:50;;;;;;;18.05;9.45;;;5.90;99.90;;;;;;5012281;28;20639;-77
2021/11/10 05:24:15;;;;;;;19.08;9.68;;;5.90;99.90;;;;;;5012470;28;20169;-76
2021/11/10 05:26:41;;;;;;;21.52;9.23;;;5.80;99.90;;;;;;5015598;28;20522;-76
2021/11/10 05:29:09;;;;;;;25.92;10.02;;;5.90;99.90;;;;;;5016108;28;20179;-76
2021/11/10 05:31:35;;;;;;;30.20;10.95;;;6.00;99.90;;;;;;5015990;28;20553;-76
2021/11/10 05:34:01;;;;;;;23.45;10.48;;;6.20;99.90;;;;;;5015841;28;20218;-77
2021/11/10 05:36:27;;;;;;;30.60;10.50;;;6.20;99.90;;;;;;5015962;28;20680;-76
2021/11/10 05:38:52;;;;;;;21.90;9.25;;;6.20;99.90;;;;;;5016035;28;20165;-77
2021/11/10 05:41:18;;;;;;;26.83;9.05;;;6.10;99.90;;;;;;5031217;28;20196;-76
2021/11/10 05:43:44;;;;;;;20.02;8.63;;;5.70;99.90;;;;;;5015986;28;20197;-76
2021/11/10 05:46:10;;;;;;;18.67;9.88;;;5.70;99.90;;;;;;5015632;28;20208;-76
2021/11/10 05:48:36;;;;;;;24.75;9.88;;;5.80;99.90;;;;;;5030837;28;20165;-76
2021/11/10 05:51:03;;;;;;;37.17;10.73;;;5.90;99.90;;;;;;5015788;28;20246;-76
2021/11/10 05:53:29;;;;;;;24.73;10.02;;;6.10;99.90;;;;;;5015396;28;20252;-76
2021/11/10 05:55:56;;;;;;;20.95;8.70;;;6.00;99.90;;;;;;5015515;28;20223;-76
2021/11/10 05:58:28;;;;;;;20.80;9.45;;;6.00;99.90;;;;;;5015908;28;20169;-77
2021/11/10 06:00:56;;;;;;;22.40;9.10;;;6.00;99.90;;;;;;5016350;28;20243;-76
2021/11/10 06:03:22;;;;;;;16.77;9.75;;;5.90;99.90;;;;;;5015840;28;20196;-76
2021/11/10 06:05:50;;;;;;;20.98;10.07;;;6.00;99.90;;;;;;5015497;28;20632;-76
2021/11/10 06:08:16;;;;;;;31.05;9.57;;;6.10;99.90;;;;;;5015612;28;20271;-77
2021/11/10 06:10:42;;;;;;;19.27;8.63;;;5.80;99.90;;;;;;5015325;28;20736;-77
2021/11/10 06:13:07;;;;;;;22.15;10.48;;;5.60;99.90;;;;;;5015633;28;20168;-76
2021/11/10 06:15:33;;;;;;;24.58;9.15;;;5.60;99.90;;;;;;5015701;28;20750;-76
2021/11/10 06:17:58;;;;;;;26.77;10.95;;;5.70;99.90;;;;;;5015175;28;20176;-76
2021/11/10 06:20:24;;;;;;;27.02;10.43;;;5.80;99.90;;;;;;5015243;28;20207;-77
2021/11/10 06:22:50;;;;;;;27.42;11.48;;;5.60;99.90;;;;;;5015089;28;20196;-77
2021/11/10 06:25:15;;;;;;;28.55;10.32;;;5.70;99.90;;;;;;5015376;28;20164;-76
2021/11/10 06:27:41;;;;;;;23.75;10.52;;;5.50;99.90;;;;;;5013864;28;20173;-76
2021/11/10 06:30:10;;;;;;;23.75;10.75;;;5.60;99.90;;;;;;5014645;28;20196;-76
2021/11/10 06:32:36;;;;;;;22.45;10.60;;;5.90;99.90;;;;;;5015096;28;20160;-76
2021/11/10 06:35:04;;;;;;;22.27;11.50;;;6.20;99.90;;;;;;5013484;28;20196;-76
2021/11/10 06:37:29;;;;;;;35.25;11.82;;;6.30;99.90;;;;;;5014220;28;20175;-78
2021/11/10 06:39:55;;;;;;;37.28;12.38;;;6.30;99.90;;;;;;5014610;28;20540;-76
2021/11/10 06:42:20;;;;;;;26.10;12.10;;;6.30;99.90;;;;;;5013442;28;20171;-76
2021/11/10 06:44:46;;;;;;;25.88;12.05;;;6.30;99.90;;;;;;5014387;28;20188;-76
2021/11/10 06:47:12;;;;;;;22.95;11.15;;;6.30;99.90;;;;;;5014604;28;20175;-76
2021/11/10 06:49:37;;;;;;;23.55;11.77;;;6.50;99.90;;;;;;5014248;28;20250;-76
2021/11/10 06:52:03;;;;;;;29.80;11.90;;;6.50;99.90;;;;;;5014446;28;20172;-76
2021/11/10 06:54:29;;;;;;;37.00;12.55;;;6.50;99.90;;;;;;5014014;28;20165;-76
2021/11/10 06:56:55;;;;;;;30.33;12.40;;;6.60;99.90;;;;;;5014391;28;20542;-76
2021/11/10 06:59:21;;;;;;;32.17;12.02;;;6.70;99.90;;;;;;5014308;28;20164;-76
2021/11/10 07:01:47;;;;;;;26.88;11.02;;;6.80;99.90;;;;;;5013923;28;20259;-76
2021/11/10 07:04:13;;;;;;;26.83;11.52;;;6.70;99.90;;;;;;5014360;28;20256;-76
2021/11/10 07:06:39;;;;;;;21.58;11.77;;;6.80;99.90;;;;;;5013914;28;20200;-76
2021/11/10 07:09:07;;;;;;;28.15;10.98;;;6.80;99.90;;;;;;5013874;28;20164;-76
2021/11/10 07:11:34;;;;;;;23.35;11.30;;;6.90;99.90;;;;;;5013840;28;20187;-76
2021/11/10 07:14:02;;;;;;;25.10;12.60;;;6.90;99.90;;;;;;5013775;28;20172;-76
2021/11/10 07:16:28;;;;;;;21.77;11.32;;;6.40;99.90;;;;;;5014030;28;20204;-77
2021/11/10 07:18:54;;;;;;;22.20;10.50;;;6.50;99.90;;;;;;5013994;28;20243;-77
2021/11/10 07:21:20;;;;;;;31.55;13.10;;;6.40;99.90;;;;;;5014304;28;20279;-83
2021/11/10 07:23:45;;;;;;;21.88;11.07;;;6.30;99.90;;;;;;5014788;28;20161;-82
2021/11/10 07:26:11;;;;;;;27.90;11.48;;;6.40;99.90;;;;;;5013662;28;20643;-77
2021/11/10 07:28:37;;;;;;;24.52;12.00;;;6.50;99.90;;;;;;5013451;28;20161;-77
2021/11/10 07:31:03;;;;;;;29.02;12.05;;;6.70;99.90;;;;;;5012131;28;20224;-76
2021/11/10 07:33:28;;;;;;;40.03;12.77;;;6.90;99.90;;;;;;5012945;28;20267;-76
2021/11/10 07:35:54;;;;;;;26.95;11.65;;;7.00;99.90;;;;;;5013235;28;20224;-77
2021/11/10 07:38:24;;;;;;;23.65;12.32;;;7.00;99.90;;;;;;5012911;28;20252;-76
2021/11/10 07:40:52;;;;;;;33.22;12.45;;;6.90;99.90;;;;;;5013317;28;20279;-76
2021/11/10 07:43:18;;;;;;;32.85;12.82;;;6.80;99.90;;;;;;5013088;28;20164;-77
2021/11/10 07:45:50;;;;;;;25.75;12.65;;;6.80;99.90;;;;;;5013281;28;20687;-85
2021/11/10 07:48:18;;;;;;;24.70;11.20;;;6.80;99.90;;;;;;5010551;28;20600;-78
2021/11/10 07:50:44;;;;;;;34.03;12.55;;;6.70;99.90;;;;;;5013135;28;20199;-76
2021/11/10 07:53:09;;;;;;;19.15;11.65;;;6.80;99.90;;;;;;5011741;28;20564;-76
2021/11/10 07:55:35;;;;;;;37.75;12.63;;;7.00;99.90;;;;;;5012430;28;20219;-76
2021/11/10 07:58:02;;;;;;;27.13;11.43;;;7.20;99.90;;;;;;5012456;28;20241;-76
2021/11/10 08:00:29;;;;;;;28.05;13.25;;;7.20;99.90;;;;;;5013095;28;20207;-76
2021/11/10 08:02:54;;;;;;;31.33;11.43;;;7.20;99.90;;;;;;5012529;28;20180;-76
2021/11/10 08:05:20;;;;;;;21.67;10.80;;;7.20;99.90;;;;;;5012664;28;20177;-76
2021/11/10 08:07:47;;;;;;;21.08;11.40;;;7.20;99.90;;;;;;5012966;28;20235;-76
2021/11/10 08:10:14;;;;;;;36.78;12.48;;;7.30;99.90;;;;;;5012977;28;20199;-76
2021/11/10 08:12:41;;;;;;;23.55;11.73;;;7.20;99.90;;;;;;5013169;28;20617;-76
2021/11/10 08:15:12;;;;;;;22.88;11.48;;;7.20;99.90;;;;;;5028098;28;20207;-76
2021/11/10 08:17:38;;;;;;;25.30;11.00;;;7.20;99.90;;;;;;5013139;28;20161;-76
2021/11/10 08:20:22;;;;;;;22.58;12.18;;;7.20;99.90;;;;;;5013116;28;20198;-75
2021/11/10 08:22:48;;;;;;;22.50;11.40;;;7.40;99.90;;;;;;5012890;28;20176;-75
2021/11/10 08:25:17;;;;;;;27.67;10.95;;;7.60;99.90;;;;;;5012861;28;20192;-75
2021/11/10 08:27:44;;;;;;;25.60;11.02;;;7.80;99.90;;;;;;5012949;28;20207;-76
2021/11/10 08:30:14;;;;;;;28.98;12.27;;;7.80;99.90;;;;;;5012877;28;20672;-76
2021/11/10 08:32:40;;;;;;;25.52;10.98;;;7.90;99.90;;;;;;5012901;28;20164;-77
2021/11/10 08:35:07;;;;;;;40.60;11.15;;;8.00;99.90;;;;;;5012613;28;20312;-77
2021/11/10 08:37:33;;;;;;;38.13;13.57;;;8.10;99.90;;;;;;5011212;28;20172;-78
2021/11/10 08:39:59;;;;;;;19.15;11.75;;;8.30;99.90;;;;;;5012405;28;20192;-77
2021/11/10 08:42:32;;;;;;;27.25;11.68;;;8.20;99.90;;;;;;5012363;28;20192;-78
2021/11/10 08:45:13;;;;;;;23.48;11.18;;;8.10;99.90;;;;;;5012351;28;20200;-78
2021/11/10 08:47:42;;;;;;;29.67;11.15;;;8.10;99.90;;;;;;5012511;28;20659;-77
2021/11/10 08:50:09;;;;;;;29.02;11.25;;;7.90;99.90;;;;;;5010424;28;20219;-77
2021/11/10 08:52:36;;;;;;;20.95;10.07;;;7.90;99.90;;;;;;5010708;28;20173;-77
2021/11/10 08:55:05;;;;;;;25.23;11.18;;;8.00;99.90;;;;;;5012224;28;20664;-77
2021/11/10 08:57:31;;;;;;;19.50;9.95;;;8.20;99.90;;;;;;5012255;28;20180;-77
2021/11/10 09:00:01;;;;;;;25.35;10.98;;;8.20;99.90;;;;;;5012191;28;20188;-77
2021/11/10 09:02:26;;;;;;;33.30;11.43;;;8.20;99.90;;;;;;5012551;28;20256;-77
2021/11/10 09:04:52;;;;;;;27.00;12.15;;;8.20;99.90;;;;;;5010933;28;20314;-77
2021/11/10 09:07:17;;;;;;;23.55;11.52;;;8.30;99.90;;;;;;5012498;28;20656;-77
2021/11/10 09:09:43;;;;;;;33.08;10.82;;;8.40;99.90;;;;;;5012407;28;20200;-77
2021/11/10 09:12:09;;;;;;;20.77;10.15;;;8.40;99.90;;;;;;5012473;28;20627;-77
2021/11/10 09:14:35;;;;;;;16.83;10.00;;;8.50;99.90;;;;;;5012179;28;20243;-77
2021/11/10 09:17:01;;;;;;;29.15;10.48;;;8.50;99.90;;;;;;5012038;28;20176;-77
2021/11/10 09:19:27;;;;;;;18.85;10.25;;;8.50;99.90;;;;;;5012332;28;20168;-77
2021/11/10 09:21:52;;;;;;;15.70;9.57;;;8.50;99.90;;;;;;5010959;28;20172;-77
2021/11/10 09:24:18;;;;;;;19.55;9.93;;;8.50;99.90;;;;;;5027861;28;20196;-77
2021/11/10 09:26:44;;;;;;;20.88;10.23;;;8.50;99.90;;;;;;5012282;28;20663;-90
2021/11/10 09:29:09;;;;;;;23.45;10.40;;;8.60;99.90;;;;;;5012890;28;20683;-77
2021/11/10 09:31:36;;;;;;;34.42;11.30;;;8.80;99.90;;;;;;5012263;28;20242;-87
2021/11/10 09:34:07;;;;;;;33.63;10.95;;;8.80;99.90;;;;;;5028988;28;20184;-82
2021/11/10 09:36:36;;;;;;;22.58;10.13;;;8.80;99.90;;;;;;5033479;28;20229;-93
2021/11/10 09:39:02;;;;;;;20.30;10.25;;;9.00;99.90;;;;;;5033627;28;20191;-85
2021/11/10 09:41:27;;;;;;;17.58;9.88;;;9.10;99.90;;;;;;5033311;28;20187;-94
2021/11/10 09:43:53;;;;;;;17.55;10.05;;;9.10;99.90;;;;;;5033578;28;20595;-91
2021/11/10 09:46:20;;;;;;;26.92;9.82;;;9.00;99.90;;;;;;5033924;28;20161;-89
2021/11/10 09:48:53;;;;;;;17.35;8.48;;;9.00;99.90;;;;;;5032372;28;20176;-94
2021/11/10 09:51:19;;;;;;;15.35;8.90;;;8.90;99.90;;;;;;5032708;28;20182;-82
2021/11/10 09:53:45;;;;;;;17.90;9.63;;;8.90;99.90;;;;;;5032974;28;20188;-87
2021/11/10 09:56:10;;;;;;;17.98;10.05;;;8.90;99.90;;;;;;5032368;28;20208;-91
2021/11/10 09:58:39;;;;;;;17.02;9.98;;;8.80;99.90;;;;;;5031635;28;20187;-93
2021/11/10 10:01:08;;;;;;;16.08;9.70;;;8.80;99.90;;;;;;5033106;28;20678;-79
2021/11/10 10:03:35;;;;;;;20.65;9.10;;;8.90;99.90;;;;;;5032064;28;20172;-79
2021/11/10 10:06:01;;;;;;;16.40;9.85;;;8.90;99.90;;;;;;5032696;28;20217;-87
2021/11/10 10:08:27;;;;;;;27.00;10.57;;;9.00;99.90;;;;;;5031133;28;20168;-78
2021/11/10 10:10:54;;;;;;;17.80;9.52;;;9.00;99.90;;;;;;5029596;28;20187;-77
2021/11/10 10:13:21;;;;;;;20.92;11.30;;;9.20;99.90;;;;;;5033238;28;20172;-77
2021/11/10 10:15:49;;;;;;;18.55;9.85;;;9.30;99.90;;;;;;5035077;28;20239;-78
2021/11/10 10:18:25;;;;;;;21.65;10.07;;;9.30;99.90;;;;;;5035030;28;20208;-77
2021/11/10 10:21:00;;;;;;;15.70;9.32;;;9.40;99.90;;;;;;5035083;28;20234;-79
2021/11/10 10:23:31;;;;;;;20.52;10.63;;;9.40;99.90;;;;;;5033642;28;20171;-78
2021/11/10 10:26:17;;;;;;;20.33;10.95;;;9.30;99.90;;;;;;5034533;28;20168;-79
2021/11/10 10:28:46;;;;;;;16.92;10.13;;;9.30;99.90;;;;;;5035272;28;20168;-78
2021/11/10 10:31:15;;;;;;;27.92;11.68;;;9.30;99.90;;;;;;5033669;28;20695;-78
2021/11/10 10:33:43;;;;;;;23.10;10.20;;;9.20;99.90;;;;;;5034804;28;20270;-78
2021/11/10 10:36:12;;;;;;;31.83;12.23;;;9.20;99.90;;;;;;5033652;28;20203;-78
2021/11/10 10:38:53;;;;;;;21.40;9.88;;;9.30;99.90;;;;;;5034042;28;20882;-78
2021/11/10 10:41:22;;;;;;;25.77;11.45;;;9.40;99.90;;;;;;5033957;28;20196;-90
2021/11/10 10:43:53;;;;;;;24.83;12.10;;;9.40;99.90;;;;;;5034717;28;20164;-78
2021/11/10 10:46:24;;;;;;;25.77;12.15;;;9.50;99.90;;;;;;5034635;28;20163;-80
2021/11/10 10:48:50;;;;;;;22.50;11.93;;;9.60;99.90;;;;;;5033147;28;20207;-79
2021/11/10 10:51:17;;;;;;;23.45;11.07;;;9.60;99.90;;;;;;5034381;28;20720;-88
2021/11/10 10:53:49;;;;;;;17.77;10.30;;;9.50;99.90;;;;;;5034167;28;20170;-80
2021/11/10 10:56:19;;;;;;;18.95;11.10;;;9.40;99.90;;;;;;5034046;28;20203;-80
2021/11/10 10:58:46;;;;;;;24.75;10.98;;;9.50;99.90;;;;;;5034000;28;20529;-81
2021/11/10 11:01:31;;;;;;;15.27;10.40;;;9.70;99.90;;;;;;5033699;28;20725;-79
2021/11/10 11:04:09;;;;;;;13.90;9.93;;;9.70;99.90;;;;;;5034214;28;20171;-78
2021/11/10 11:06:42;;;;;;;16.50;10.20;;;9.80;99.90;;;;;;5034048;28;20628;-79
2021/11/10 11:09:15;;;;;;;19.23;9.57;;;9.80;99.90;;;;;;5034281;28;20168;-86
2021/11/10 11:12:08;;;;;;;22.98;11.80;;;9.60;99.90;;;;;;5033827;28;20556;-78
2021/11/10 11:14:55;;;;;;;28.92;12.50;;;9.60;99.90;;;;;;5032302;28;20275;-78
2021/11/10 11:17:21;;;;;;;28.50;12.25;;;9.60;99.90;;;;;;5033987;28;20233;-78
2021/11/10 11:19:50;;;;;;;18.95;11.95;;;9.60;99.90;;;;;;5033738;28;20237;-79
2021/11/10 11:22:16;;;;;;;33.60;13.43;;;9.60;99.90;;;;;;5032793;28;20225;-78
2021/11/10 11:24:45;;;;;;;26.08;11.82;;;9.80;99.90;;;;;;5033982;28;20168;-77
2021/11/10 11:27:17;;;;;;;21.40;12.02;;;9.70;99.90;;;;;;5033405;28;20179;-84
2021/11/10 11:29:45;;;;;;;25.40;12.88;;;9.70;99.90;;;;;;5032987;28;20359;-79
2021/11/10 11:32:20;;;;;;;23.27;13.00;;;9.70;99.90;;;;;;5032853;28;20191;-77
2021/11/10 11:35:17;;;;;;;32.05;14.55;;;9.50;99.90;;;;;;5033411;28;20187;-77
2021/11/10 11:37:44;;;;;;;31.17;12.73;;;9.60;99.90;;;;;;5012708;28;20325;-78
2021/11/10 11:40:13;;;;;;;29.05;13.15;;;9.70;99.90;;;;;;5033348;28;20737;-81
2021/11/10 11:42:39;;;;;;;31.40;12.85;;;9.90;99.90;;;;;;5033356;28;20255;-78
2021/11/10 11:45:08;;;;;;;24.38;12.30;;;10.00;99.90;;;;;;5032693;28;20187;-78
2021/11/10 11:47:34;;;;;;;23.98;13.00;;;10.00;99.90;;;;;;5033083;28;20226;-77
2021/11/10 11:50:03;;;;;;;25.33;11.93;;;10.10;99.90;;;;;;5032845;28;20242;-80
2021/11/10 11:52:32;;;;;;;28.95;12.38;;;10.30;99.90;;;;;;5032100;28;20198;-77
2021/11/10 11:55:01;;;;;;;27.55;12.40;;;10.20;99.90;;;;;;5033420;28;20226;-77
2021/11/10 11:57:28;;;;;;;27.05;10.93;;;10.20;99.90;;;;;;5033276;28;20175;-78
2021/11/10 11:59:57;;;;;;;32.65;11.93;;;10.30;99.90;;;;;;5032871;28;20188;-77
2021/11/10 12:02:38;;;;;;;30.58;11.30;;;10.40;99.90;;;;;;5032007;28;20163;-82
2021/11/10 12:05:27;;;;;;;29.00;12.63;;;10.50;99.90;;;;;;5032884;28;20655;-77
2021/11/10 12:07:57;;;;;;;20.63;12.40;;;10.40;99.90;;;;;;5024728;28;20186;-78
2021/11/10 12:10:23;;;;;;;27.83;11.85;;;10.50;99.90;;;;;;5031444;28;20202;-79
2021/11/10 12:13:09;;;;;;;24.75;12.05;;;10.30;99.90;;;;;;5032851;28;20168;-78
2021/11/10 12:16:04;;;;;;;26.40;10.93;;;10.30;99.90;;;;;;5033595;28;20215;-78
2021/11/10 12:18:45;;;;;;;16.88;10.88;;;10.40;99.90;;;;;;5032814;28;20251;-78
2021/11/10 12:21:12;;;;;;;31.48;11.35;;;10.40;99.90;;;;;;5031980;28;20238;-87
2021/11/10 12:23:52;;;;;;;27.45;12.63;;;10.60;99.90;;;;;;5032018;28;20172;-79
2021/11/10 12:26:19;;;;;;;23.75;11.70;;;10.60;99.90;;;;;;5032486;28;20175;-79
2021/11/10 12:28:57;;;;;;;22.55;11.25;;;10.60;99.90;;;;;;5032023;28;20207;-85
2021/11/10 12:31:30;;;;;;;25.10;11.70;;;10.60;99.90;;;;;;5031967;28;20215;-78
2021/11/10 12:34:23;;;;;;;32.13;16.98;;;10.50;99.90;;;;;;5032010;28;20255;-87
2021/11/10 12:36:48;;;;;;;37.83;15.00;;;10.40;99.90;;;;;;5026895;28;20220;-78
2021/11/10 12:39:14;;;;;;;23.92;12.52;;;10.60;99.90;;;;;;5032141;28;20234;-78
2021/11/10 12:41:49;;;;;;;28.45;13.13;;;10.80;99.90;;;;;;5032434;28;20188;-78
2021/11/10 12:44:51;;;;;;;23.20;11.85;;;10.90;99.90;;;;;;5032671;28;20167;-78